sensor_id;sensor_type;location;lat;lon;timestamp;P1;durP1;ratioP1;P2;durP2;ratioP2
74793;SDS011;63320;50.768;6.724;2023-02-19T00:00:09;1.60;;;0.80;;
74793;SDS011;63320;50.768;6.724;2023-02-19T00:02:35;2.80;;;1.10;;
74793;SDS011;63320;50.768;6.724;2023-02-19T00:05:00;4.10;;;1.25;;
74793;SDS011;63320;50.768;6.724;2023-02-19T00:07:26;2.60;;;1.00;;
74793;SDS011;63320;50.768;6.724;2023-02-19T00:09:53;2.92;;;1.17;;
74793;SDS011;63320;50.768;6.724;2023-02-19T00:12:18;3.08;;;1.38;;
74793;SDS011;63320;50.768;6.724;2023-02-19T00:14:43;3.60;;;1.45;;
74793;SDS011;63320;50.768;6.724;2023-02-19T00:17:08;3.03;;;1.25;;
74793;SDS011;63320;50.768;6.724;2023-02-19T00:19:34;3.55;;;1.33;;
74793;SDS011;63320;50.768;6.724;2023-02-19T00:21:59;3.70;;;1.58;;
74793;SDS011;63320;50.768;6.724;2023-02-19T00:24:24;2.83;;;1.10;;
74793;SDS011;63320;50.768;6.724;2023-02-19T00:26:51;3.78;;;1.65;;
74793;SDS011;63320;50.768;6.724;2023-02-19T00:29:17;4.20;;;2.00;;
74793;SDS011;63320;50.768;6.724;2023-02-19T00:31:44;4.38;;;2.20;;
74793;SDS011;63320;50.768;6.724;2023-02-19T00:34:10;4.47;;;2.35;;
74793;SDS011;63320;50.768;6.724;2023-02-19T00:36:37;5.85;;;3.22;;
74793;SDS011;63320;50.768;6.724;2023-02-19T00:39:03;6.53;;;4.00;;
74793;SDS011;63320;50.768;6.724;2023-02-19T00:41:30;6.78;;;3.90;;
74793;SDS011;63320;50.768;6.724;2023-02-19T00:43:57;7.57;;;5.10;;
74793;SDS011;63320;50.768;6.724;2023-02-19T00:46:25;8.63;;;4.97;;
74793;SDS011;63320;50.768;6.724;2023-02-19T00:48:52;11.35;;;4.75;;
74793;SDS011;63320;50.768;6.724;2023-02-19T00:51:18;7.97;;;4.93;;
74793;SDS011;63320;50.768;6.724;2023-02-19T00:53:44;8.40;;;5.63;;
74793;SDS011;63320;50.768;6.724;2023-02-19T00:56:10;7.13;;;4.75;;
74793;SDS011;63320;50.768;6.724;2023-02-19T00:58:36;8.82;;;4.68;;
74793;SDS011;63320;50.768;6.724;2023-02-19T01:01:03;6.25;;;3.90;;
74793;SDS011;63320;50.768;6.724;2023-02-19T01:03:30;6.25;;;4.13;;
74793;SDS011;63320;50.768;6.724;2023-02-19T01:05:55;7.00;;;4.07;;
74793;SDS011;63320;50.768;6.724;2023-02-19T01:08:21;7.03;;;3.25;;
74793;SDS011;63320;50.768;6.724;2023-02-19T01:10:46;5.10;;;2.53;;
74793;SDS011;63320;50.768;6.724;2023-02-19T01:13:12;5.07;;;2.33;;
74793;SDS011;63320;50.768;6.724;2023-02-19T01:15:38;4.10;;;1.92;;
74793;SDS011;63320;50.768;6.724;2023-02-19T01:18:04;4.15;;;2.10;;
74793;SDS011;63320;50.768;6.724;2023-02-19T01:20:30;3.97;;;1.88;;
74793;SDS011;63320;50.768;6.724;2023-02-19T01:22:55;4.13;;;1.90;;
74793;SDS011;63320;50.768;6.724;2023-02-19T01:25:21;3.15;;;1.45;;
74793;SDS011;63320;50.768;6.724;2023-02-19T01:27:46;3.95;;;1.67;;
74793;SDS011;63320;50.768;6.724;2023-02-19T01:30:12;4.20;;;1.92;;
74793;SDS011;63320;50.768;6.724;2023-02-19T01:32:37;3.22;;;1.40;;
74793;SDS011;63320;50.768;6.724;2023-02-19T01:35:04;3.28;;;1.50;;
74793;SDS011;63320;50.768;6.724;2023-02-19T01:37:30;3.90;;;1.60;;
74793;SDS011;63320;50.768;6.724;2023-02-19T01:39:55;3.92;;;1.60;;
74793;SDS011;63320;50.768;6.724;2023-02-19T01:42:21;4.25;;;1.63;;
74793;SDS011;63320;50.768;6.724;2023-02-19T01:47:49;4.25;;;1.67;;
74793;SDS011;63320;50.768;6.724;2023-02-19T01:50:23;3.90;;;1.75;;
74793;SDS011;63320;50.768;6.724;2023-02-19T01:52:51;4.30;;;2.10;;
74793;SDS011;63320;50.768;6.724;2023-02-19T01:55:17;5.78;;;2.30;;
74793;SDS011;63320;50.768;6.724;2023-02-19T01:57:44;4.18;;;2.15;;
74793;SDS011;63320;50.768;6.724;2023-02-19T02:00:15;4.82;;;2.40;;
74793;SDS011;63320;50.768;6.724;2023-02-19T02:02:42;5.13;;;2.10;;
74793;SDS011;63320;50.768;6.724;2023-02-19T02:05:14;4.68;;;2.10;;
74793;SDS011;63320;50.768;6.724;2023-02-19T02:07:47;5.38;;;2.13;;
74793;SDS011;63320;50.768;6.724;2023-02-19T02:10:12;4.72;;;2.15;;
74793;SDS011;63320;50.768;6.724;2023-02-19T02:12:38;5.10;;;2.20;;
74793;SDS011;63320;50.768;6.724;2023-02-19T02:15:03;3.70;;;1.67;;
74793;SDS011;63320;50.768;6.724;2023-02-19T02:17:30;3.92;;;1.90;;
74793;SDS011;63320;50.768;6.724;2023-02-19T02:20:05;3.45;;;1.70;;
74793;SDS011;63320;50.768;6.724;2023-02-19T02:22:50;4.32;;;2.00;;
74793;SDS011;63320;50.768;6.724;2023-02-19T02:25:38;4.70;;;1.95;;
74793;SDS011;63320;50.768;6.724;2023-02-19T02:28:21;6.60;;;2.20;;
74793;SDS011;63320;50.768;6.724;2023-02-19T02:31:02;5.97;;;2.58;;
74793;SDS011;63320;50.768;6.724;2023-02-19T02:33:31;4.13;;;2.10;;
74793;SDS011;63320;50.768;6.724;2023-02-19T02:36:02;6.72;;;2.25;;
74793;SDS011;63320;50.768;6.724;2023-02-19T02:38:31;4.28;;;2.33;;
74793;SDS011;63320;50.768;6.724;2023-02-19T02:41:00;6.70;;;2.50;;
74793;SDS011;63320;50.768;6.724;2023-02-19T02:43:26;6.30;;;2.72;;
74793;SDS011;63320;50.768;6.724;2023-02-19T02:45:51;5.57;;;2.63;;
74793;SDS011;63320;50.768;6.724;2023-02-19T02:48:21;7.25;;;3.35;;
74793;SDS011;63320;50.768;6.724;2023-02-19T02:50:52;6.78;;;3.03;;
74793;SDS011;63320;50.768;6.724;2023-02-19T02:53:21;10.70;;;3.65;;
74793;SDS011;63320;50.768;6.724;2023-02-19T02:55:52;7.18;;;3.67;;
74793;SDS011;63320;50.768;6.724;2023-02-19T02:58:18;10.18;;;4.30;;
74793;SDS011;63320;50.768;6.724;2023-02-19T03:00:46;8.30;;;3.88;;
74793;SDS011;63320;50.768;6.724;2023-02-19T03:03:18;8.30;;;4.03;;
74793;SDS011;63320;50.768;6.724;2023-02-19T03:05:48;8.98;;;4.47;;
74793;SDS011;63320;50.768;6.724;2023-02-19T03:08:19;9.38;;;4.20;;
74793;SDS011;63320;50.768;6.724;2023-02-19T03:10:49;9.88;;;4.65;;
74793;SDS011;63320;50.768;6.724;2023-02-19T03:13:18;9.85;;;5.10;;
74793;SDS011;63320;50.768;6.724;2023-02-19T03:15:50;9.98;;;4.93;;
74793;SDS011;63320;50.768;6.724;2023-02-19T03:18:19;10.57;;;5.65;;
74793;SDS011;63320;50.768;6.724;2023-02-19T03:20:49;10.32;;;4.65;;
74793;SDS011;63320;50.768;6.724;2023-02-19T03:23:18;9.10;;;4.25;;
74793;SDS011;63320;50.768;6.724;2023-02-19T03:25:47;11.73;;;5.68;;
74793;SDS011;63320;50.768;6.724;2023-02-19T03:28:13;13.98;;;6.03;;
74793;SDS011;63320;50.768;6.724;2023-02-19T03:30:41;11.45;;;6.07;;
74793;SDS011;63320;50.768;6.724;2023-02-19T03:35:41;10.98;;;5.07;;
74793;SDS011;63320;50.768;6.724;2023-02-19T03:38:10;13.73;;;5.25;;
74793;SDS011;63320;50.768;6.724;2023-02-19T03:40:49;11.30;;;5.75;;
74793;SDS011;63320;50.768;6.724;2023-02-19T03:43:20;10.60;;;5.60;;
74793;SDS011;63320;50.768;6.724;2023-02-19T03:45:53;11.32;;;5.75;;
74793;SDS011;63320;50.768;6.724;2023-02-19T03:48:28;12.95;;;5.85;;
74793;SDS011;63320;50.768;6.724;2023-02-19T03:51:01;13.10;;;5.75;;
74793;SDS011;63320;50.768;6.724;2023-02-19T03:53:37;11.20;;;4.82;;
74793;SDS011;63320;50.768;6.724;2023-02-19T03:56:15;11.18;;;5.90;;
74793;SDS011;63320;50.768;6.724;2023-02-19T03:58:48;11.85;;;5.82;;
74793;SDS011;63320;50.768;6.724;2023-02-19T04:01:18;12.13;;;5.10;;
74793;SDS011;63320;50.768;6.724;2023-02-19T04:03:50;12.70;;;5.60;;
74793;SDS011;63320;50.768;6.724;2023-02-19T04:06:21;12.80;;;6.10;;
74793;SDS011;63320;50.768;6.724;2023-02-19T04:08:51;12.82;;;5.75;;
74793;SDS011;63320;50.768;6.724;2023-02-19T04:11:19;15.85;;;6.28;;
74793;SDS011;63320;50.768;6.724;2023-02-19T04:13:47;15.73;;;6.63;;
74793;SDS011;63320;50.768;6.724;2023-02-19T04:16:19;9.82;;;5.40;;
74793;SDS011;63320;50.768;6.724;2023-02-19T04:18:47;12.57;;;5.55;;
74793;SDS011;63320;50.768;6.724;2023-02-19T04:21:17;12.57;;;6.13;;
74793;SDS011;63320;50.768;6.724;2023-02-19T04:23:45;13.98;;;6.00;;
74793;SDS011;63320;50.768;6.724;2023-02-19T04:26:12;13.38;;;6.10;;
74793;SDS011;63320;50.768;6.724;2023-02-19T04:28:39;15.48;;;6.78;;
74793;SDS011;63320;50.768;6.724;2023-02-19T04:31:05;14.88;;;6.57;;
74793;SDS011;63320;50.768;6.724;2023-02-19T04:33:30;14.23;;;6.68;;
74793;SDS011;63320;50.768;6.724;2023-02-19T04:35:55;14.93;;;6.25;;
74793;SDS011;63320;50.768;6.724;2023-02-19T04:38:21;12.43;;;6.82;;
74793;SDS011;63320;50.768;6.724;2023-02-19T04:40:48;14.32;;;6.15;;
74793;SDS011;63320;50.768;6.724;2023-02-19T04:43:13;19.83;;;5.90;;
74793;SDS011;63320;50.768;6.724;2023-02-19T04:45:38;19.50;;;6.95;;
74793;SDS011;63320;50.768;6.724;2023-02-19T04:48:04;11.90;;;5.75;;
74793;SDS011;63320;50.768;6.724;2023-02-19T04:50:29;14.07;;;5.72;;
74793;SDS011;63320;50.768;6.724;2023-02-19T04:52:55;13.88;;;6.03;;
74793;SDS011;63320;50.768;6.724;2023-02-19T04:55:20;15.27;;;6.40;;
74793;SDS011;63320;50.768;6.724;2023-02-19T04:57:47;15.02;;;6.00;;
74793;SDS011;63320;50.768;6.724;2023-02-19T05:00:12;13.63;;;6.78;;
74793;SDS011;63320;50.768;6.724;2023-02-19T05:02:38;12.48;;;5.88;;
74793;SDS011;63320;50.768;6.724;2023-02-19T05:05:04;13.57;;;5.47;;
74793;SDS011;63320;50.768;6.724;2023-02-19T05:07:29;15.52;;;6.55;;
74793;SDS011;63320;50.768;6.724;2023-02-19T05:09:54;18.98;;;7.32;;
74793;SDS011;63320;50.768;6.724;2023-02-19T05:12:20;15.77;;;6.90;;
74793;SDS011;63320;50.768;6.724;2023-02-19T05:14:46;14.57;;;6.72;;
74793;SDS011;63320;50.768;6.724;2023-02-19T05:17:12;14.05;;;5.68;;
74793;SDS011;63320;50.768;6.724;2023-02-19T05:19:37;17.60;;;7.22;;
74793;SDS011;63320;50.768;6.724;2023-02-19T05:22:02;12.75;;;5.75;;
74793;SDS011;63320;50.768;6.724;2023-02-19T05:24:28;15.32;;;7.40;;
74793;SDS011;63320;50.768;6.724;2023-02-19T05:26:53;15.20;;;7.70;;
74793;SDS011;63320;50.768;6.724;2023-02-19T05:29:18;15.30;;;7.85;;
74793;SDS011;63320;50.768;6.724;2023-02-19T05:31:45;14.40;;;6.93;;
74793;SDS011;63320;50.768;6.724;2023-02-19T05:34:10;17.35;;;6.45;;
74793;SDS011;63320;50.768;6.724;2023-02-19T05:36:36;16.02;;;7.22;;
74793;SDS011;63320;50.768;6.724;2023-02-19T05:39:01;17.50;;;8.68;;
74793;SDS011;63320;50.768;6.724;2023-02-19T05:41:28;17.45;;;7.97;;
74793;SDS011;63320;50.768;6.724;2023-02-19T05:43:54;20.52;;;7.32;;
74793;SDS011;63320;50.768;6.724;2023-02-19T05:46:21;18.48;;;7.93;;
74793;SDS011;63320;50.768;6.724;2023-02-19T05:48:50;16.85;;;7.97;;
74793;SDS011;63320;50.768;6.724;2023-02-19T05:51:17;17.90;;;8.88;;
74793;SDS011;63320;50.768;6.724;2023-02-19T05:53:44;20.05;;;8.98;;
74793;SDS011;63320;50.768;6.724;2023-02-19T05:58:55;15.07;;;6.72;;
74793;SDS011;63320;50.768;6.724;2023-02-19T06:01:22;16.48;;;7.72;;
74793;SDS011;63320;50.768;6.724;2023-02-19T06:03:52;22.10;;;8.95;;
74793;SDS011;63320;50.768;6.724;2023-02-19T06:06:18;19.05;;;8.27;;
74793;SDS011;63320;50.768;6.724;2023-02-19T06:08:44;16.33;;;6.93;;
74793;SDS011;63320;50.768;6.724;2023-02-19T06:11:10;19.60;;;8.27;;
74793;SDS011;63320;50.768;6.724;2023-02-19T06:13:35;19.25;;;8.20;;
74793;SDS011;63320;50.768;6.724;2023-02-19T06:16:02;17.85;;;7.95;;
74793;SDS011;63320;50.768;6.724;2023-02-19T06:18:27;18.23;;;7.78;;
74793;SDS011;63320;50.768;6.724;2023-02-19T06:20:54;17.38;;;7.10;;
74793;SDS011;63320;50.768;6.724;2023-02-19T06:23:26;17.23;;;7.10;;
74793;SDS011;63320;50.768;6.724;2023-02-19T06:25:51;14.98;;;8.00;;
74793;SDS011;63320;50.768;6.724;2023-02-19T06:28:16;18.38;;;8.05;;
74793;SDS011;63320;50.768;6.724;2023-02-19T06:30:42;16.10;;;7.13;;
74793;SDS011;63320;50.768;6.724;2023-02-19T06:33:07;17.33;;;7.32;;
74793;SDS011;63320;50.768;6.724;2023-02-19T06:35:32;17.63;;;7.68;;
74793;SDS011;63320;50.768;6.724;2023-02-19T06:37:59;20.00;;;8.18;;
74793;SDS011;63320;50.768;6.724;2023-02-19T06:40:24;20.27;;;8.32;;
74793;SDS011;63320;50.768;6.724;2023-02-19T06:42:50;16.63;;;7.22;;
74793;SDS011;63320;50.768;6.724;2023-02-19T06:45:15;20.02;;;8.32;;
74793;SDS011;63320;50.768;6.724;2023-02-19T06:47:40;14.90;;;7.25;;
74793;SDS011;63320;50.768;6.724;2023-02-19T06:50:06;17.85;;;6.93;;
74793;SDS011;63320;50.768;6.724;2023-02-19T06:52:31;14.75;;;7.15;;
74793;SDS011;63320;50.768;6.724;2023-02-19T06:54:58;19.85;;;6.75;;
74793;SDS011;63320;50.768;6.724;2023-02-19T06:57:23;15.90;;;6.75;;
74793;SDS011;63320;50.768;6.724;2023-02-19T06:59:49;16.00;;;7.07;;
74793;SDS011;63320;50.768;6.724;2023-02-19T07:02:14;17.20;;;7.60;;
74793;SDS011;63320;50.768;6.724;2023-02-19T07:04:39;17.63;;;7.82;;
74793;SDS011;63320;50.768;6.724;2023-02-19T07:07:05;21.40;;;9.05;;
74793;SDS011;63320;50.768;6.724;2023-02-19T07:09:30;15.85;;;8.38;;
74793;SDS011;63320;50.768;6.724;2023-02-19T07:11:57;19.35;;;9.07;;
74793;SDS011;63320;50.768;6.724;2023-02-19T07:14:22;17.58;;;8.55;;
74793;SDS011;63320;50.768;6.724;2023-02-19T07:16:48;20.95;;;8.82;;
74793;SDS011;63320;50.768;6.724;2023-02-19T07:19:13;22.23;;;8.45;;
74793;SDS011;63320;50.768;6.724;2023-02-19T07:21:39;17.42;;;8.02;;
74793;SDS011;63320;50.768;6.724;2023-02-19T07:24:05;18.13;;;8.05;;
74793;SDS011;63320;50.768;6.724;2023-02-19T07:26:30;17.77;;;7.60;;
74793;SDS011;63320;50.768;6.724;2023-02-19T07:28:58;23.05;;;8.77;;
74793;SDS011;63320;50.768;6.724;2023-02-19T07:31:23;16.38;;;7.90;;
74793;SDS011;63320;50.768;6.724;2023-02-19T07:33:48;20.65;;;8.75;;
74793;SDS011;63320;50.768;6.724;2023-02-19T07:36:18;24.52;;;8.85;;
74793;SDS011;63320;50.768;6.724;2023-02-19T07:38:44;20.27;;;8.35;;
74793;SDS011;63320;50.768;6.724;2023-02-19T07:41:10;18.88;;;8.52;;
74793;SDS011;63320;50.768;6.724;2023-02-19T07:43:36;23.20;;;9.35;;
74793;SDS011;63320;50.768;6.724;2023-02-19T07:46:03;24.20;;;9.30;;
74793;SDS011;63320;50.768;6.724;2023-02-19T07:48:30;18.77;;;8.35;;
74793;SDS011;63320;50.768;6.724;2023-02-19T07:50:55;20.10;;;8.65;;
74793;SDS011;63320;50.768;6.724;2023-02-19T07:53:22;20.25;;;8.73;;
74793;SDS011;63320;50.768;6.724;2023-02-19T07:55:50;23.08;;;9.68;;
74793;SDS011;63320;50.768;6.724;2023-02-19T07:58:15;18.95;;;8.57;;
74793;SDS011;63320;50.768;6.724;2023-02-19T08:00:41;20.38;;;9.20;;
74793;SDS011;63320;50.768;6.724;2023-02-19T08:03:08;18.65;;;7.93;;
74793;SDS011;63320;50.768;6.724;2023-02-19T08:05:35;17.65;;;7.68;;
74793;SDS011;63320;50.768;6.724;2023-02-19T08:08:02;21.20;;;8.98;;
74793;SDS011;63320;50.768;6.724;2023-02-19T08:10:29;15.13;;;7.40;;
74793;SDS011;63320;50.768;6.724;2023-02-19T08:12:55;24.58;;;8.65;;
74793;SDS011;63320;50.768;6.724;2023-02-19T08:15:20;19.25;;;8.95;;
74793;SDS011;63320;50.768;6.724;2023-02-19T08:17:45;18.02;;;7.63;;
74793;SDS011;63320;50.768;6.724;2023-02-19T08:20:12;20.40;;;7.53;;
74793;SDS011;63320;50.768;6.724;2023-02-19T08:22:38;16.42;;;8.00;;
74793;SDS011;63320;50.768;6.724;2023-02-19T08:25:03;20.35;;;7.95;;
74793;SDS011;63320;50.768;6.724;2023-02-19T08:27:28;18.52;;;7.30;;
74793;SDS011;63320;50.768;6.724;2023-02-19T08:29:54;17.23;;;7.93;;
74793;SDS011;63320;50.768;6.724;2023-02-19T08:32:19;21.73;;;8.38;;
74793;SDS011;63320;50.768;6.724;2023-02-19T08:34:44;20.02;;;8.25;;
74793;SDS011;63320;50.768;6.724;2023-02-19T08:37:11;18.38;;;8.60;;
74793;SDS011;63320;50.768;6.724;2023-02-19T08:39:36;19.10;;;8.45;;
74793;SDS011;63320;50.768;6.724;2023-02-19T08:42:02;16.88;;;7.90;;
74793;SDS011;63320;50.768;6.724;2023-02-19T08:44:27;17.30;;;7.32;;
74793;SDS011;63320;50.768;6.724;2023-02-19T08:46:52;17.40;;;7.35;;
74793;SDS011;63320;50.768;6.724;2023-02-19T08:49:18;16.38;;;7.80;;
74793;SDS011;63320;50.768;6.724;2023-02-19T08:51:43;19.30;;;8.27;;
74793;SDS011;63320;50.768;6.724;2023-02-19T08:54:10;18.33;;;7.63;;
74793;SDS011;63320;50.768;6.724;2023-02-19T08:56:35;17.08;;;6.57;;
74793;SDS011;63320;50.768;6.724;2023-02-19T08:59:00;19.88;;;7.65;;
74793;SDS011;63320;50.768;6.724;2023-02-19T09:01:26;19.80;;;7.60;;
74793;SDS011;63320;50.768;6.724;2023-02-19T09:03:51;16.45;;;7.38;;
74793;SDS011;63320;50.768;6.724;2023-02-19T09:06:17;14.43;;;7.43;;
74793;SDS011;63320;50.768;6.724;2023-02-19T09:08:44;18.17;;;7.32;;
74793;SDS011;63320;50.768;6.724;2023-02-19T09:11:11;18.67;;;8.55;;
74793;SDS011;63320;50.768;6.724;2023-02-19T09:13:36;20.25;;;8.13;;
74793;SDS011;63320;50.768;6.724;2023-02-19T09:16:02;19.75;;;7.70;;
74793;SDS011;63320;50.768;6.724;2023-02-19T09:18:28;15.80;;;7.82;;
74793;SDS011;63320;50.768;6.724;2023-02-19T09:20:53;20.25;;;7.65;;
74793;SDS011;63320;50.768;6.724;2023-02-19T09:23:18;22.23;;;7.80;;
74793;SDS011;63320;50.768;6.724;2023-02-19T09:25:44;17.65;;;7.57;;
74793;SDS011;63320;50.768;6.724;2023-02-19T09:28:10;16.58;;;7.03;;
74793;SDS011;63320;50.768;6.724;2023-02-19T09:30:36;22.50;;;8.95;;
74793;SDS011;63320;50.768;6.724;2023-02-19T09:33:01;18.58;;;8.10;;
74793;SDS011;63320;50.768;6.724;2023-02-19T09:35:28;16.23;;;7.38;;
74793;SDS011;63320;50.768;6.724;2023-02-19T09:37:54;16.08;;;7.85;;
74793;SDS011;63320;50.768;6.724;2023-02-19T09:40:19;14.88;;;6.85;;
74793;SDS011;63320;50.768;6.724;2023-02-19T09:42:45;23.35;;;7.78;;
74793;SDS011;63320;50.768;6.724;2023-02-19T09:45:16;20.17;;;7.68;;
74793;SDS011;63320;50.768;6.724;2023-02-19T09:47:45;16.35;;;7.47;;
74793;SDS011;63320;50.768;6.724;2023-02-19T09:50:12;18.05;;;6.78;;
74793;SDS011;63320;50.768;6.724;2023-02-19T09:52:42;18.35;;;6.78;;
74793;SDS011;63320;50.768;6.724;2023-02-19T09:55:14;15.48;;;6.18;;
74793;SDS011;63320;50.768;6.724;2023-02-19T09:57:41;16.73;;;5.70;;
74793;SDS011;63320;50.768;6.724;2023-02-19T10:00:13;12.30;;;5.80;;
74793;SDS011;63320;50.768;6.724;2023-02-19T10:02:49;13.05;;;4.78;;
74793;SDS011;63320;50.768;6.724;2023-02-19T10:05:15;14.50;;;5.18;;
74793;SDS011;63320;50.768;6.724;2023-02-19T10:07:42;9.00;;;4.03;;
74793;SDS011;63320;50.768;6.724;2023-02-19T10:10:17;12.65;;;4.85;;
74793;SDS011;63320;50.768;6.724;2023-02-19T10:12:49;12.18;;;4.10;;
74793;SDS011;63320;50.768;6.724;2023-02-19T10:15:19;14.15;;;4.70;;
74793;SDS011;63320;50.768;6.724;2023-02-19T10:17:50;9.70;;;4.03;;
74793;SDS011;63320;50.768;6.724;2023-02-19T10:20:16;13.07;;;5.22;;
74793;SDS011;63320;50.768;6.724;2023-02-19T10:22:45;13.00;;;4.65;;
74793;SDS011;63320;50.768;6.724;2023-02-19T10:25:11;14.90;;;4.82;;
74793;SDS011;63320;50.768;6.724;2023-02-19T10:27:40;15.07;;;5.70;;
74793;SDS011;63320;50.768;6.724;2023-02-19T10:30:08;8.90;;;4.22;;
74793;SDS011;63320;50.768;6.724;2023-02-19T10:32:44;10.88;;;4.43;;
74793;SDS011;63320;50.768;6.724;2023-02-19T10:35:22;10.20;;;3.90;;
74793;SDS011;63320;50.768;6.724;2023-02-19T10:37:48;12.95;;;4.80;;
74793;SDS011;63320;50.768;6.724;2023-02-19T10:40:15;10.98;;;5.13;;
74793;SDS011;63320;50.768;6.724;2023-02-19T10:42:43;13.75;;;6.10;;
74793;SDS011;63320;50.768;6.724;2023-02-19T10:45:12;12.70;;;5.60;;
74793;SDS011;63320;50.768;6.724;2023-02-19T10:47:45;13.15;;;5.40;;
74793;SDS011;63320;50.768;6.724;2023-02-19T10:50:15;10.40;;;5.50;;
74793;SDS011;63320;50.768;6.724;2023-02-19T10:52:44;13.23;;;5.72;;
74793;SDS011;63320;50.768;6.724;2023-02-19T10:55:23;11.32;;;6.13;;
74793;SDS011;63320;50.768;6.724;2023-02-19T10:57:51;12.27;;;5.63;;
74793;SDS011;63320;50.768;6.724;2023-02-19T11:00:21;9.75;;;4.13;;
74793;SDS011;63320;50.768;6.724;2023-02-19T11:02:50;10.43;;;4.82;;
74793;SDS011;63320;50.768;6.724;2023-02-19T11:05:49;11.40;;;5.35;;
74793;SDS011;63320;50.768;6.724;2023-02-19T11:08:20;11.80;;;5.47;;
74793;SDS011;63320;50.768;6.724;2023-02-19T11:10:46;13.65;;;5.35;;
74793;SDS011;63320;50.768;6.724;2023-02-19T11:13:13;9.57;;;5.47;;
74793;SDS011;63320;50.768;6.724;2023-02-19T11:15:42;12.43;;;5.45;;
74793;SDS011;63320;50.768;6.724;2023-02-19T11:18:14;13.32;;;5.85;;
74793;SDS011;63320;50.768;6.724;2023-02-19T11:20:47;13.85;;;5.40;;
74793;SDS011;63320;50.768;6.724;2023-02-19T11:23:15;13.82;;;5.72;;
74793;SDS011;63320;50.768;6.724;2023-02-19T11:25:43;14.18;;;5.43;;
74793;SDS011;63320;50.768;6.724;2023-02-19T11:28:18;11.05;;;5.10;;
74793;SDS011;63320;50.768;6.724;2023-02-19T11:30:47;9.77;;;5.18;;
74793;SDS011;63320;50.768;6.724;2023-02-19T11:33:24;9.80;;;5.75;;
74793;SDS011;63320;50.768;6.724;2023-02-19T11:35:51;10.07;;;5.45;;
74793;SDS011;63320;50.768;6.724;2023-02-19T11:38:21;11.40;;;5.35;;
74793;SDS011;63320;50.768;6.724;2023-02-19T11:40:49;11.40;;;5.20;;
74793;SDS011;63320;50.768;6.724;2023-02-19T11:43:23;12.00;;;5.30;;
74793;SDS011;63320;50.768;6.724;2023-02-19T11:46:01;11.38;;;5.38;;
74793;SDS011;63320;50.768;6.724;2023-02-19T11:51:26;11.02;;;5.70;;
74793;SDS011;63320;50.768;6.724;2023-02-19T11:53:59;11.93;;;5.32;;
74793;SDS011;63320;50.768;6.724;2023-02-19T11:56:36;11.45;;;5.68;;
74793;SDS011;63320;50.768;6.724;2023-02-19T11:59:06;15.88;;;6.65;;
74793;SDS011;63320;50.768;6.724;2023-02-19T12:04:33;15.20;;;8.27;;
74793;SDS011;63320;50.768;6.724;2023-02-19T12:09:56;12.88;;;6.22;;
74793;SDS011;63320;50.768;6.724;2023-02-19T12:12:38;10.68;;;5.60;;
74793;SDS011;63320;50.768;6.724;2023-02-19T12:15:21;14.18;;;6.30;;
74793;SDS011;63320;50.768;6.724;2023-02-19T12:21:02;9.95;;;5.40;;
74793;SDS011;63320;50.768;6.724;2023-02-19T12:23:48;10.88;;;5.57;;
74793;SDS011;63320;50.768;6.724;2023-02-19T12:26:26;12.13;;;6.50;;
74793;SDS011;63320;50.768;6.724;2023-02-19T12:29:00;18.08;;;6.22;;
74793;SDS011;63320;50.768;6.724;2023-02-19T12:31:46;14.35;;;5.90;;
74793;SDS011;63320;50.768;6.724;2023-02-19T12:34:27;17.48;;;5.90;;
74793;SDS011;63320;50.768;6.724;2023-02-19T12:37:10;11.43;;;5.18;;
74793;SDS011;63320;50.768;6.724;2023-02-19T12:39:52;14.85;;;6.07;;
74793;SDS011;63320;50.768;6.724;2023-02-19T12:42:37;12.77;;;4.90;;
74793;SDS011;63320;50.768;6.724;2023-02-19T12:45:15;8.57;;;3.85;;
74793;SDS011;63320;50.768;6.724;2023-02-19T12:50:15;7.97;;;3.67;;
74793;SDS011;63320;50.768;6.724;2023-02-19T12:52:47;10.90;;;3.45;;
74793;SDS011;63320;50.768;6.724;2023-02-19T12:55:18;7.80;;;3.38;;
74793;SDS011;63320;50.768;6.724;2023-02-19T12:57:46;8.80;;;3.70;;
74793;SDS011;63320;50.768;6.724;2023-02-19T13:00:19;8.25;;;4.30;;
74793;SDS011;63320;50.768;6.724;2023-02-19T13:02:52;8.82;;;4.40;;
74793;SDS011;63320;50.768;6.724;2023-02-19T13:05:24;9.70;;;4.93;;
74793;SDS011;63320;50.768;6.724;2023-02-19T13:08:03;10.80;;;5.05;;
74793;SDS011;63320;50.768;6.724;2023-02-19T13:10:34;9.50;;;4.93;;
74793;SDS011;63320;50.768;6.724;2023-02-19T13:13:04;12.55;;;6.25;;
74793;SDS011;63320;50.768;6.724;2023-02-19T13:15:34;11.68;;;6.50;;
74793;SDS011;63320;50.768;6.724;2023-02-19T13:18:03;13.05;;;6.80;;
74793;SDS011;63320;50.768;6.724;2023-02-19T13:20:36;12.45;;;7.05;;
74793;SDS011;63320;50.768;6.724;2023-02-19T13:23:07;13.30;;;6.38;;
74793;SDS011;63320;50.768;6.724;2023-02-19T13:25:40;11.95;;;5.15;;
74793;SDS011;63320;50.768;6.724;2023-02-19T13:28:20;12.38;;;5.65;;
74793;SDS011;63320;50.768;6.724;2023-02-19T13:30:59;13.80;;;5.70;;
74793;SDS011;63320;50.768;6.724;2023-02-19T13:33:40;9.68;;;5.18;;
74793;SDS011;63320;50.768;6.724;2023-02-19T13:36:13;12.40;;;5.03;;
74793;SDS011;63320;50.768;6.724;2023-02-19T13:38:45;10.85;;;5.30;;
74793;SDS011;63320;50.768;6.724;2023-02-19T13:41:19;13.55;;;4.72;;
74793;SDS011;63320;50.768;6.724;2023-02-19T13:43:53;12.05;;;5.68;;
74793;SDS011;63320;50.768;6.724;2023-02-19T13:46:21;12.93;;;5.55;;
74793;SDS011;63320;50.768;6.724;2023-02-19T13:48:47;10.63;;;4.72;;
74793;SDS011;63320;50.768;6.724;2023-02-19T13:54:18;9.93;;;4.68;;
74793;SDS011;63320;50.768;6.724;2023-02-19T13:56:49;10.98;;;5.20;;
74793;SDS011;63320;50.768;6.724;2023-02-19T13:59:49;10.38;;;5.43;;
74793;SDS011;63320;50.768;6.724;2023-02-19T14:04:59;10.52;;;4.85;;
74793;SDS011;63320;50.768;6.724;2023-02-19T14:13:10;10.38;;;3.80;;
74793;SDS011;63320;50.768;6.724;2023-02-19T14:15:40;12.80;;;4.25;;
74793;SDS011;63320;50.768;6.724;2023-02-19T14:21:13;8.63;;;3.65;;
74793;SDS011;63320;50.768;6.724;2023-02-19T14:23:40;11.68;;;3.92;;
74793;SDS011;63320;50.768;6.724;2023-02-19T14:26:05;11.45;;;3.53;;
74793;SDS011;63320;50.768;6.724;2023-02-19T14:28:43;8.40;;;4.32;;
74793;SDS011;63320;50.768;6.724;2023-02-19T14:31:14;11.38;;;4.85;;
74793;SDS011;63320;50.768;6.724;2023-02-19T14:33:45;11.88;;;4.47;;
74793;SDS011;63320;50.768;6.724;2023-02-19T14:39:05;11.40;;;5.80;;
74793;SDS011;63320;50.768;6.724;2023-02-19T14:44:03;13.27;;;5.88;;
74793;SDS011;63320;50.768;6.724;2023-02-19T14:46:33;10.35;;;5.72;;
74793;SDS011;63320;50.768;6.724;2023-02-19T14:49:02;13.82;;;5.30;;
74793;SDS011;63320;50.768;6.724;2023-02-19T14:51:32;10.43;;;5.72;;
74793;SDS011;63320;50.768;6.724;2023-02-19T14:54:02;11.90;;;5.88;;
74793;SDS011;63320;50.768;6.724;2023-02-19T14:56:35;11.75;;;5.40;;
74793;SDS011;63320;50.768;6.724;2023-02-19T14:59:06;13.38;;;6.38;;
74793;SDS011;63320;50.768;6.724;2023-02-19T15:01:33;10.88;;;5.75;;
74793;SDS011;63320;50.768;6.724;2023-02-19T15:03:59;15.60;;;6.22;;
74793;SDS011;63320;50.768;6.724;2023-02-19T15:06:24;13.68;;;5.90;;
74793;SDS011;63320;50.768;6.724;2023-02-19T15:08:51;13.13;;;6.38;;
74793;SDS011;63320;50.768;6.724;2023-02-19T15:11:22;12.68;;;6.10;;
74793;SDS011;63320;50.768;6.724;2023-02-19T15:13:51;11.90;;;5.50;;
74793;SDS011;63320;50.768;6.724;2023-02-19T15:16:21;14.18;;;6.10;;
74793;SDS011;63320;50.768;6.724;2023-02-19T15:18:49;11.02;;;5.15;;
74793;SDS011;63320;50.768;6.724;2023-02-19T15:21:18;14.80;;;6.05;;
74793;SDS011;63320;50.768;6.724;2023-02-19T15:23:46;14.00;;;6.78;;
74793;SDS011;63320;50.768;6.724;2023-02-19T15:26:15;14.57;;;6.43;;
74793;SDS011;63320;50.768;6.724;2023-02-19T15:28:44;13.60;;;6.15;;